sensor_id;sensor_type;location;lat;lon;timestamp;temperature;humidity
13682;DHT22;6913;49.892;7.936;2022-12-10T00:01:33;1.40;99.90
13682;DHT22;6913;49.892;7.936;2022-12-10T00:04:02;1.50;99.90
13682;DHT22;6913;49.892;7.936;2022-12-10T00:06:31;1.50;99.90
13682;DHT22;6913;49.892;7.936;2022-12-10T00:08:58;1.50;99.90
13682;DHT22;6913;49.892;7.936;2022-12-10T00:11:26;1.60;99.90
13682;DHT22;6913;49.892;7.936;2022-12-10T00:13:54;1.50;99.90
13682;DHT22;6913;49.892;7.936;2022-12-10T00:16:22;1.50;99.90
13682;DHT22;6913;49.892;7.936;2022-12-10T00:18:49;1.50;99.90
13682;DHT22;6913;49.892;7.936;2022-12-10T00:21:20;1.50;99.90
13682;DHT22;6913;49.892;7.936;2022-12-10T00:23:47;1.50;99.90
13682;DHT22;6913;49.892;7.936;2022-12-10T00:26:16;1.40;99.90
13682;DHT22;6913;49.892;7.936;2022-12-10T00:28:45;1.40;99.90
13682;DHT22;6913;49.892;7.936;2022-12-10T00:31:13;1.40;99.90
13682;DHT22;6913;49.892;7.936;2022-12-10T00:33:42;1.40;99.90
13682;DHT22;6913;49.892;7.936;2022-12-10T00:36:11;1.40;99.90
13682;DHT22;6913;49.892;7.936;2022-12-10T00:38:40;1.40;99.90
13682;DHT22;6913;49.892;7.936;2022-12-10T00:41:07;1.70;99.90
13682;DHT22;6913;49.892;7.936;2022-12-10T00:43:34;1.60;99.90
13682;DHT22;6913;49.892;7.936;2022-12-10T00:46:01;1.40;99.90
13682;DHT22;6913;49.892;7.936;2022-12-10T00:48:29;1.30;99.90
13682;DHT22;6913;49.892;7.936;2022-12-10T00:50:58;1.40;99.90
13682;DHT22;6913;49.892;7.936;2022-12-10T00:53:25;1.40;99.90
13682;DHT22;6913;49.892;7.936;2022-12-10T00:55:54;1.40;99.90
13682;DHT22;6913;49.892;7.936;2022-12-10T00:58:21;1.40;99.90
13682;DHT22;6913;49.892;7.936;2022-12-10T01:00:49;1.30;99.90
13682;DHT22;6913;49.892;7.936;2022-12-10T01:03:16;1.40;99.90
13682;DHT22;6913;49.892;7.936;2022-12-10T01:05:42;1.40;99.90
13682;DHT22;6913;49.892;7.936;2022-12-10T01:08:09;1.40;99.90
13682;DHT22;6913;49.892;7.936;2022-12-10T01:10:36;1.40;99.90
13682;DHT22;6913;49.892;7.936;2022-12-10T01:13:05;1.40;99.90
13682;DHT22;6913;49.892;7.936;2022-12-10T01:15:31;1.40;99.90
13682;DHT22;6913;49.892;7.936;2022-12-10T01:18:03;1.40;99.90
13682;DHT22;6913;49.892;7.936;2022-12-10T01:20:30;1.40;99.90
13682;DHT22;6913;49.892;7.936;2022-12-10T01:23:00;1.40;99.90
13682;DHT22;6913;49.892;7.936;2022-12-10T01:25:27;1.40;99.90
13682;DHT22;6913;49.892;7.936;2022-12-10T01:27:53;1.40;99.90
13682;DHT22;6913;49.892;7.936;2022-12-10T01:30:22;1.30;99.90
13682;DHT22;6913;49.892;7.936;2022-12-10T01:32:49;1.30;99.90
13682;DHT22;6913;49.892;7.936;2022-12-10T01:35:15;1.30;99.90
13682;DHT22;6913;49.892;7.936;2022-12-10T01:37:42;1.30;99.90
13682;DHT22;6913;49.892;7.936;2022-12-10T01:40:10;1.30;99.90
13682;DHT22;6913;49.892;7.936;2022-12-10T01:42:38;1.30;99.90
13682;DHT22;6913;49.892;7.936;2022-12-10T01:45:09;1.20;99.90
13682;DHT22;6913;49.892;7.936;2022-12-10T01:47:38;1.20;99.90
13682;DHT22;6913;49.892;7.936;2022-12-10T01:50:07;1.20;99.90
13682;DHT22;6913;49.892;7.936;2022-12-10T01:52:35;1.30;99.90
13682;DHT22;6913;49.892;7.936;2022-12-10T01:55:08;1.30;99.90
13682;DHT22;6913;49.892;7.936;2022-12-10T01:57:35;1.30;99.90
13682;DHT22;6913;49.892;7.936;2022-12-10T02:00:05;1.30;99.90
13682;DHT22;6913;49.892;7.936;2022-12-10T02:02:42;1.20;99.90
13682;DHT22;6913;49.892;7.936;2022-12-10T02:05:20;1.20;99.90
13682;DHT22;6913;49.892;7.936;2022-12-10T02:07:59;1.30;99.90
13682;DHT22;6913;49.892;7.936;2022-12-10T02:10:38;1.30;99.90
13682;DHT22;6913;49.892;7.936;2022-12-10T02:13:14;1.30;99.90
13682;DHT22;6913;49.892;7.936;2022-12-10T02:15:47;1.30;99.90
13682;DHT22;6913;49.892;7.936;2022-12-10T02:18:21;1.20;99.90
13682;DHT22;6913;49.892;7.936;2022-12-10T02:20:52;1.20;99.90
13682;DHT22;6913;49.892;7.936;2022-12-10T02:23:25;1.20;99.90
13682;DHT22;6913;49.892;7.936;2022-12-10T02:25:57;1.30;99.90
13682;DHT22;6913;49.892;7.936;2022-12-10T02:28:31;1.30;99.90
13682;DHT22;6913;49.892;7.936;2022-12-10T02:31:09;1.30;99.90
13682;DHT22;6913;49.892;7.936;2022-12-10T02:33:39;1.30;99.90
13682;DHT22;6913;49.892;7.936;2022-12-10T02:36:08;1.30;99.90
13682;DHT22;6913;49.892;7.936;2022-12-10T02:38:37;1.30;99.90
13682;DHT22;6913;49.892;7.936;2022-12-10T02:41:08;1.20;99.90
13682;DHT22;6913;49.892;7.936;2022-12-10T02:43:39;1.20;99.90
13682;DHT22;6913;49.892;7.936;2022-12-10T02:46:07;1.20;99.90
13682;DHT22;6913;49.892;7.936;2022-12-10T02:48:35;1.20;99.90
13682;DHT22;6913;49.892;7.936;2022-12-10T02:51:02;1.10;99.90
13682;DHT22;6913;49.892;7.936;2022-12-10T10:02:22;4.30;99.90
13682;DHT22;6913;49.892;7.936;2022-12-10T10:04:54;4.40;99.90
13682;DHT22;6913;49.892;7.936;2022-12-10T10:07:24;4.60;99.90
13682;DHT22;6913;49.892;7.936;2022-12-10T10:09:56;4.60;99.90
13682;DHT22;6913;49.892;7.936;2022-12-10T10:12:23;4.70;99.90
13682;DHT22;6913;49.892;7.936;2022-12-10T10:14:51;4.80;99.90
13682;DHT22;6913;49.892;7.936;2022-12-10T10:17:21;4.80;99.90
13682;DHT22;6913;49.892;7.936;2022-12-10T10:19:49;4.60;99.90
13682;DHT22;6913;49.892;7.936;2022-12-10T10:22:16;4.50;99.90
13682;DHT22;6913;49.892;7.936;2022-12-10T10:24:44;4.30;99.90
13682;DHT22;6913;49.892;7.936;2022-12-10T10:27:14;3.70;99.90
13682;DHT22;6913;49.892;7.936;2022-12-10T10:29:43;3.80;99.90
13682;DHT22;6913;49.892;7.936;2022-12-10T10:32:14;3.70;99.90
13682;DHT22;6913;49.892;7.936;2022-12-10T10:34:42;3.60;99.90
13682;DHT22;6913;49.892;7.936;2022-12-10T10:37:15;3.50;99.90
13682;DHT22;6913;49.892;7.936;2022-12-10T10:39:47;3.30;99.90
13682;DHT22;6913;49.892;7.936;2022-12-10T10:42:23;3.30;99.90
13682;DHT22;6913;49.892;7.936;2022-12-10T10:44:51;3.30;99.90
13682;DHT22;6913;49.892;7.936;2022-12-10T10:47:27;2.90;99.90
13682;DHT22;6913;49.892;7.936;2022-12-10T10:49:55;2.60;99.90
13682;DHT22;6913;49.892;7.936;2022-12-10T10:52:22;2.60;99.90
13682;DHT22;6913;49.892;7.936;2022-12-10T10:54:53;2.60;99.90
13682;DHT22;6913;49.892;7.936;2022-12-10T10:57:24;2.70;99.90
13682;DHT22;6913;49.892;7.936;2022-12-10T10:59:54;2.60;99.90
13682;DHT22;6913;49.892;7.936;2022-12-10T11:02:26;2.60;99.90
13682;DHT22;6913;49.892;7.936;2022-12-10T11:04:56;3.70;99.90
13682;DHT22;6913;49.892;7.936;2022-12-10T11:07:33;2.40;99.90
13682;DHT22;6913;49.892;7.936;2022-12-10T11:10:01;2.40;99.90
13682;DHT22;6913;49.892;7.936;2022-12-10T11:12:34;2.40;99.90
13682;DHT22;6913;49.892;7.936;2022-12-10T11:15:02;3.20;99.90
13682;DHT22;6913;49.892;7.936;2022-12-10T11:17:46;2.30;99.90
13682;DHT22;6913;49.892;7.936;2022-12-10T11:20:18;2.20;99.90
13682;DHT22;6913;49.892;7.936;2022-12-10T11:22:49;2.20;99.90
13682;DHT22;6913;49.892;7.936;2022-12-10T11:25:17;2.30;99.90
13682;DHT22;6913;49.892;7.936;2022-12-10T11:27:52;2.10;99.90
13682;DHT22;6913;49.892;7.936;2022-12-10T11:30:22;2.00;99.90
13682;DHT22;6913;49.892;7.936;2022-12-10T11:33:04;1.90;99.90
13682;DHT22;6913;49.892;7.936;2022-12-10T11:35:44;1.90;99.90
13682;DHT22;6913;49.892;7.936;2022-12-10T11:38:22;1.80;99.90
13682;DHT22;6913;49.892;7.936;2022-12-10T12:09:29;3.80;99.90
13682;DHT22;6913;49.892;7.936;2022-12-10T12:12:15;3.90;99.90
13682;DHT22;6913;49.892;7.936;2022-12-10T12:14:49;3.90;99.90
13682;DHT22;6913;49.892;7.936;2022-12-10T12:17:21;3.90;99.90
13682;DHT22;6913;49.892;7.936;2022-12-10T12:19:52;3.90;99.90
13682;DHT22;6913;49.892;7.936;2022-12-10T12:22:23;3.80;99.90
13682;DHT22;6913;49.892;7.936;2022-12-10T12:24:54;3.70;99.90
13682;DHT22;6913;49.892;7.936;2022-12-10T12:27:27;3.70;99.90
13682;DHT22;6913;49.892;7.936;2022-12-10T12:30:02;3.70;99.90
13682;DHT22;6913;49.892;7.936;2022-12-10T12:32:34;3.40;99.90
13682;DHT22;6913;49.892;7.936;2022-12-10T12:35:11;3.30;99.90
13682;DHT22;6913;49.892;7.936;2022-12-10T12:37:42;3.20;99.90
13682;DHT22;6913;49.892;7.936;2022-12-10T12:40:15;3.30;99.90
13682;DHT22;6913;49.892;7.936;2022-12-10T12:42:50;3.30;99.90
13682;DHT22;6913;49.892;7.936;2022-12-10T12:45:21;3.20;99.90
13682;DHT22;6913;49.892;7.936;2022-12-10T12:47:55;3.00;99.90
13682;DHT22;6913;49.892;7.936;2022-12-10T12:50:32;3.10;99.90
13682;DHT22;6913;49.892;7.936;2022-12-10T12:53:04;3.00;99.90
13682;DHT22;6913;49.892;7.936;2022-12-10T12:55:42;2.90;99.90
13682;DHT22;6913;49.892;7.936;2022-12-10T12:58:15;2.80;99.90
13682;DHT22;6913;49.892;7.936;2022-12-10T13:00:49;2.80;99.90
13682;DHT22;6913;49.892;7.936;2022-12-10T13:03:24;2.80;99.90
13682;DHT22;6913;49.892;7.936;2022-12-10T13:05:55;2.70;99.90
13682;DHT22;6913;49.892;7.936;2022-12-10T13:08:24;2.80;99.90
13682;DHT22;6913;49.892;7.936;2022-12-10T13:10:53;2.80;99.90
13682;DHT22;6913;49.892;7.936;2022-12-10T13:13:27;2.80;99.90
13682;DHT22;6913;49.892;7.936;2022-12-10T13:15:54;2.90;99.90
13682;DHT22;6913;49.892;7.936;2022-12-10T13:18:37;2.70;99.90
13682;DHT22;6913;49.892;7.936;2022-12-10T13:21:31;2.70;99.90
13682;DHT22;6913;49.892;7.936;2022-12-10T13:24:12;2.60;99.90
13682;DHT22;6913;49.892;7.936;2022-12-10T13:29:25;2.50;99.90
13682;DHT22;6913;49.892;7.936;2022-12-10T13:31:57;2.30;99.90
13682;DHT22;6913;49.892;7.936;2022-12-10T13:34:33;0.50;99.90
13682;DHT22;6913;49.892;7.936;2022-12-10T13:37:17;2.10;99.90
13682;DHT22;6913;49.892;7.936;2022-12-10T13:39:53;2.10;99.90
13682;DHT22;6913;49.892;7.936;2022-12-10T13:42:30;2.40;99.90
13682;DHT22;6913;49.892;7.936;2022-12-10T13:45:27;2.00;99.90
13682;DHT22;6913;49.892;7.936;2022-12-10T13:48:15;2.10;99.90
13682;DHT22;6913;49.892;7.936;2022-12-10T13:50:45;2.10;99.90
13682;DHT22;6913;49.892;7.936;2022-12-10T13:53:22;2.00;99.90
13682;DHT22;6913;49.892;7.936;2022-12-10T13:55:59;2.00;99.90
13682;DHT22;6913;49.892;7.936;2022-12-10T13:58:37;1.90;99.90
13682;DHT22;6913;49.892;7.936;2022-12-10T14:01:12;1.90;99.90
13682;DHT22;6913;49.892;7.936;2022-12-10T14:04:01;2.00;99.90
13682;DHT22;6913;49.892;7.936;2022-12-10T14:06:33;1.90;99.90
13682;DHT22;6913;49.892;7.936;2022-12-10T14:09:05;1.80;99.90
13682;DHT22;6913;49.892;7.936;2022-12-10T14:11:35;2.10;99.90
13682;DHT22;6913;49.892;7.936;2022-12-10T14:14:05;1.70;99.90
13682;DHT22;6913;49.892;7.936;2022-12-10T14:16:33;1.60;99.90
13682;DHT22;6913;49.892;7.936;2022-12-10T14:19:04;1.70;99.90
13682;DHT22;6913;49.892;7.936;2022-12-10T14:21:32;1.70;99.90
13682;DHT22;6913;49.892;7.936;2022-12-10T14:24:00;1.80;99.90
13682;DHT22;6913;49.892;7.936;2022-12-10T14:26:30;1.60;99.90
13682;DHT22;6913;49.892;7.936;2022-12-10T14:28:59;1.60;99.90
13682;DHT22;6913;49.892;7.936;2022-12-10T14:31:28;1.50;99.90
13682;DHT22;6913;49.892;7.936;2022-12-10T14:34:03;1.30;99.90
13682;DHT22;6913;49.892;7.936;2022-12-10T14:36:32;1.50;99.90
13682;DHT22;6913;49.892;7.936;2022-12-10T14:39:00;1.50;99.90
13682;DHT22;6913;49.892;7.936;2022-12-10T14:41:30;1.50;99.90
13682;DHT22;6913;49.892;7.936;2022-12-10T14:44:02;1.30;99.90
13682;DHT22;6913;49.892;7.936;2022-12-10T14:46:31;1.30;99.90
13682;DHT22;6913;49.892;7.936;2022-12-10T14:48:58;1.00;99.90
13682;DHT22;6913;49.892;7.936;2022-12-10T14:51:26;1.20;99.90
13682;DHT22;6913;49.892;7.936;2022-12-10T14:53:57;1.10;99.90
13682;DHT22;6913;49.892;7.936;2022-12-10T14:56:26;1.20;99.90
13682;DHT22;6913;49.892;7.936;2022-12-10T14:59:02;1.10;99.90
13682;DHT22;6913;49.892;7.936;2022-12-10T15:01:33;1.00;99.90
13682;DHT22;6913;49.892;7.936;2022-12-10T15:04:03;1.00;99.90
13682;DHT22;6913;49.892;7.936;2022-12-10T15:06:34;1.00;99.90
13682;DHT22;6913;49.892;7.936;2022-12-10T15:09:02;0.90;99.90
13682;DHT22;6913;49.892;7.936;2022-12-10T15:11:30;1.00;99.90
13682;DHT22;6913;49.892;7.936;2022-12-10T15:14:00;0.90;99.90
13682;DHT22;6913;49.892;7.936;2022-12-10T15:16:30;0.90;99.90
13682;DHT22;6913;49.892;7.936;2022-12-10T15:19:13;0.80;99.90
13682;DHT22;6913;49.892;7.936;2022-12-10T17:53:00;-0.60;99.90
13682;DHT22;6913;49.892;7.936;2022-12-10T17:55:28;-0.80;99.90
13682;DHT22;6913;49.892;7.936;2022-12-10T17:57:55;-0.80;99.90
13682;DHT22;6913;49.892;7.936;2022-12-10T18:00:26;-0.90;99.90
13682;DHT22;6913;49.892;7.936;2022-12-10T18:02:53;-0.90;99.90
13682;DHT22;6913;49.892;7.936;2022-12-10T18:05:21;-0.90;99.90
13682;DHT22;6913;49.892;7.936;2022-12-10T18:07:48;-1.00;99.90
13682;DHT22;6913;49.892;7.936;2022-12-10T18:10:17;-1.10;99.90
13682;DHT22;6913;49.892;7.936;2022-12-10T18:12:44;-1.20;99.90
13682;DHT22;6913;49.892;7.936;2022-12-10T18:15:12;-1.30;99.90
13682;DHT22;6913;49.892;7.936;2022-12-10T18:17:39;-1.30;99.90
13682;DHT22;6913;49.892;7.936;2022-12-10T18:20:10;-1.30;99.90
13682;DHT22;6913;49.892;7.936;2022-12-10T18:22:42;-1.30;99.90
13682;DHT22;6913;49.892;7.936;2022-12-10T18:25:08;-1.40;99.90
13682;DHT22;6913;49.892;7.936;2022-12-10T18:27:35;-1.40;99.90
13682;DHT22;6913;49.892;7.936;2022-12-10T18:30:03;-1.40;99.90
13682;DHT22;6913;49.892;7.936;2022-12-10T18:32:30;-1.40;99.90
13682;DHT22;6913;49.892;7.936;2022-12-10T18:34:57;-1.40;99.90
13682;DHT22;6913;49.892;7.936;2022-12-10T18:37:23;-1.50;99.90
13682;DHT22;6913;49.892;7.936;2022-12-10T18:39:52;-1.50;99.90
13682;DHT22;6913;49.892;7.936;2022-12-10T18:42:18;-1.50;99.90
13682;DHT22;6913;49.892;7.936;2022-12-10T18:44:45;-1.60;99.90
13682;DHT22;6913;49.892;7.936;2022-12-10T18:47:12;-1.60;99.90
13682;DHT22;6913;49.892;7.936;2022-12-10T18:49:39;-1.60;99.90
13682;DHT22;6913;49.892;7.936;2022-12-10T18:52:06;-1.60;99.90
13682;DHT22;6913;49.892;7.936;2022-12-10T18:57:01;-1.80;99.90
13682;DHT22;6913;49.892;7.936;2022-12-10T18:59:28;-1.90;99.90
13682;DHT22;6913;49.892;7.936;2022-12-10T19:01:54;-1.90;99.90
13682;DHT22;6913;49.892;7.936;2022-12-10T19:04:21;-2.00;99.90
13682;DHT22;6913;49.892;7.936;2022-12-10T19:06:48;-2.00;99.90
13682;DHT22;6913;49.892;7.936;2022-12-10T19:09:16;-2.00;99.90
13682;DHT22;6913;49.892;7.936;2022-12-10T19:11:44;-2.10;99.90
13682;DHT22;6913;49.892;7.936;2022-12-10T19:14:13;-2.10;99.90
13682;DHT22;6913;49.892;7.936;2022-12-10T19:16:40;-2.20;99.90
13682;DHT22;6913;49.892;7.936;2022-12-10T19:19:09;-2.20;99.90
13682;DHT22;6913;49.892;7.936;2022-12-10T19:21:37;-2.30;99.90
13682;DHT22;6913;49.892;7.936;2022-12-10T19:24:04;-2.30;99.90
13682;DHT22;6913;49.892;7.936;2022-12-10T19:26:34;-2.30;99.90
13682;DHT22;6913;49.892;7.936;2022-12-10T19:29:04;-2.30;99.90
13682;DHT22;6913;49.892;7.936;2022-12-10T19:31:37;-2.30;99.90
13682;DHT22;6913;49.892;7.936;2022-12-10T19:34:04;-2.30;99.90
13682;DHT22;6913;49.892;7.936;2022-12-10T19:36:30;-2.30;99.90
13682;DHT22;6913;49.892;7.936;2022-12-10T19:38:58;-2.30;99.90
13682;DHT22;6913;49.892;7.936;2022-12-10T19:41:25;-2.30;99.90
13682;DHT22;6913;49.892;7.936;2022-12-10T20:06:11;-2.50;99.90
13682;DHT22;6913;49.892;7.936;2022-12-10T20:08:39;-2.50;99.90
13682;DHT22;6913;49.892;7.936;2022-12-10T20:11:06;-2.50;99.90
13682;DHT22;6913;49.892;7.936;2022-12-10T20:13:32;-2.20;99.90
13682;DHT22;6913;49.892;7.936;2022-12-10T20:20:55;-2.80;99.90
13682;DHT22;6913;49.892;7.936;2022-12-10T20:23:23;-2.80;99.90
13682;DHT22;6913;49.892;7.936;2022-12-10T20:28:17;-2.90;99.90
13682;DHT22;6913;49.892;7.936;2022-12-10T21:19:54;-3.40;99.90
13682;DHT22;6913;49.892;7.936;2022-12-10T21:22:20;-3.70;99.90
13682;DHT22;6913;49.892;7.936;2022-12-10T21:24:47;-3.70;99.90
13682;DHT22;6913;49.892;7.936;2022-12-10T21:27:14;-3.60;99.90
13682;DHT22;6913;49.892;7.936;2022-12-10T21:29:41;-3.70;99.90
13682;DHT22;6913;49.892;7.936;2022-12-10T21:32:09;-3.60;99.90
13682;DHT22;6913;49.892;7.936;2022-12-10T21:34:36;-3.60;99.90
13682;DHT22;6913;49.892;7.936;2022-12-10T21:37:02;-3.60;99.90
13682;DHT22;6913;49.892;7.936;2022-12-10T21:39:29;-3.50;99.90
13682;DHT22;6913;49.892;7.936;2022-12-10T21:41:56;-3.50;99.90
13682;DHT22;6913;49.892;7.936;2022-12-10T21:44:40;-3.50;99.90
13682;DHT22;6913;49.892;7.936;2022-12-10T21:47:09;-3.50;99.90
13682;DHT22;6913;49.892;7.936;2022-12-10T21:49:38;-3.50;99.90
13682;DHT22;6913;49.892;7.936;2022-12-10T21:52:04;-3.40;99.90
13682;DHT22;6913;49.892;7.936;2022-12-10T21:54:31;-3.40;99.90
13682;DHT22;6913;49.892;7.936;2022-12-10T21:56:58;-3.40;99.90
13682;DHT22;6913;49.892;7.936;2022-12-10T21:59:25;-3.30;99.90
13682;DHT22;6913;49.892;7.936;2022-12-10T22:01:54;-3.30;99.90
13682;DHT22;6913;49.892;7.936;2022-12-10T22:04:22;-3.30;99.90
13682;DHT22;6913;49.892;7.936;2022-12-10T22:06:49;-3.20;99.90
13682;DHT22;6913;49.892;7.936;2022-12-10T22:09:16;-3.00;99.90
13682;DHT22;6913;49.892;7.936;2022-12-10T22:11:43;-3.10;99.90
13682;DHT22;6913;49.892;7.936;2022-12-10T22:14:10;-3.10;99.90
13682;DHT22;6913;49.892;7.936;2022-12-10T22:16:36;-3.00;99.90
13682;DHT22;6913;49.892;7.936;2022-12-10T22:19:03;-3.00;99.90
13682;DHT22;6913;49.892;7.936;2022-12-10T22:21:32;-2.90;99.90
13682;DHT22;6913;49.892;7.936;2022-12-10T22:23:59;-2.90;99.90
13682;DHT22;6913;49.892;7.936;2022-12-10T22:26:26;-2.90;99.90
13682;DHT22;6913;49.892;7.936;2022-12-10T22:28:53;-2.90;99.90
13682;DHT22;6913;49.892;7.936;2022-12-10T22:31:20;-2.80;99.90
13682;DHT22;6913;49.892;7.936;2022-12-10T22:33:47;-2.80;99.90
13682;DHT22;6913;49.892;7.936;2022-12-10T22:36:14;-2.80;99.90
13682;DHT22;6913;49.892;7.936;2022-12-10T22:38:42;-2.70;99.90
13682;DHT22;6913;49.892;7.936;2022-12-10T22:41:10;-2.70;99.90
13682;DHT22;6913;49.892;7.936;2022-12-10T22:43:37;-2.80;99.90
13682;DHT22;6913;49.892;7.936;2022-12-10T22:46:04;-2.80;99.90
13682;DHT22;6913;49.892;7.936;2022-12-10T22:48:31;-2.80;99.90
13682;DHT22;6913;49.892;7.936;2022-12-10T22:50:59;-2.80;99.90
13682;DHT22;6913;49.892;7.936;2022-12-10T22:53:26;-2.80;99.90
13682;DHT22;6913;49.892;7.936;2022-12-10T22:55:57;-2.80;99.90
13682;DHT22;6913;49.892;7.936;2022-12-10T22:58:25;-2.70;99.90
13682;DHT22;6913;49.892;7.936;2022-12-10T23:00:51;-2.70;99.90
13682;DHT22;6913;49.892;7.936;2022-12-10T23:03:18;-2.60;99.90
13682;DHT22;6913;49.892;7.936;2022-12-10T23:05:45;-2.50;99.90
13682;DHT22;6913;49.892;7.936;2022-12-10T23:08:12;-2.40;99.90
13682;DHT22;6913;49.892;7.936;2022-12-10T23:10:39;-2.40;99.90
13682;DHT22;6913;49.892;7.936;2022-12-10T23:13:07;-2.40;99.90
13682;DHT22;6913;49.892;7.936;2022-12-10T23:15:37;-2.40;99.90
13682;DHT22;6913;49.892;7.936;2022-12-10T23:18:05;-1.90;99.90
13682;DHT22;6913;49.892;7.936;2022-12-10T23:20:31;-2.30;99.90
13682;DHT22;6913;49.892;7.936;2022-12-10T23:22:59;-2.20;99.90
13682;DHT22;6913;49.892;7.936;2022-12-10T23:25:26;-2.20;99.90
13682;DHT22;6913;49.892;7.936;2022-12-10T23:27:53;-2.20;99.90
13682;DHT22;6913;49.892;7.936;2022-12-10T23:30:22;-2.20;99.90
13682;DHT22;6913;49.892;7.936;2022-12-10T23:32:48;-2.20;99.90
13682;DHT22;6913;49.892;7.936;2022-12-10T23:35:16;-2.20;99.90
13682;DHT22;6913;49.892;7.936;2022-12-10T23:37:43;-1.50;99.90
13682;DHT22;6913;49.892;7.936;2022-12-10T23:40:10;-2.20;99.90
13682;DHT22;6913;49.892;7.936;2022-12-10T23:42:37;-2.30;99.90
13682;DHT22;6913;49.892;7.936;2022-12-10T23:45:04;-2.30;99.90
13682;DHT22;6913;49.892;7.936;2022-12-10T23:47:32;-2.40;99.90
13682;DHT22;6913;49.892;7.936;2022-12-10T23:49:59;-2.50;99.90
13682;DHT22;6913;49.892;7.936;2022-12-10T23:52:26;-2.40;99.90
13682;DHT22;6913;49.892;7.936;2022-12-10T23:54:53;-2.40;99.90
13682;DHT22;6913;49.892;7.936;2022-12-10T23:57:20;-2.40;99.90
13682;DHT22;6913;49.892;7.936;2022-12-10T23:59:46;-2.30;99.90
